sensor_id;sensor_type;location;lat;lon;timestamp;pressure;altitude;pressure_sealevel;temperature;humidity
23643;BME280;11998;55.788;37.572;2022-11-23T00:00:12;98106.06;;;2.49;100.00
23643;BME280;11998;55.788;37.572;2022-11-23T00:02:17;98104.44;;;2.39;100.00
23643;BME280;11998;55.788;37.572;2022-11-23T00:03:18;98095.66;;;2.43;100.00
23643;BME280;11998;55.788;37.572;2022-11-23T00:04:19;98097.34;;;2.47;100.00
23643;BME280;11998;55.788;37.572;2022-11-23T00:05:20;98102.63;;;2.43;100.00
23643;BME280;11998;55.788;37.572;2022-11-23T00:06:21;98093.88;;;2.48;100.00
23643;BME280;11998;55.788;37.572;2022-11-23T00:07:22;98096.44;;;2.51;100.00
23643;BME280;11998;55.788;37.572;2022-11-23T00:08:23;98098.09;;;2.57;100.00
23643;BME280;11998;55.788;37.572;2022-11-23T00:09:23;98098.28;;;2.42;100.00
23643;BME280;11998;55.788;37.572;2022-11-23T00:10:24;98103.56;;;2.35;100.00
23643;BME280;11998;55.788;37.572;2022-11-23T00:11:26;98104.47;;;2.34;100.00
23643;BME280;11998;55.788;37.572;2022-11-23T00:12:27;98099.25;;;2.36;100.00
23643;BME280;11998;55.788;37.572;2022-11-23T00:13:27;98099.97;;;2.46;100.00
23643;BME280;11998;55.788;37.572;2022-11-23T00:14:28;98103.44;;;2.46;100.00
23643;BME280;11998;55.788;37.572;2022-11-23T00:15:28;98104.34;;;2.45;100.00
23643;BME280;11998;55.788;37.572;2022-11-23T00:16:29;98100.19;;;2.27;100.00
23643;BME280;11998;55.788;37.572;2022-11-23T00:17:30;98101.06;;;2.28;100.00
23643;BME280;11998;55.788;37.572;2022-11-23T00:18:31;98107.84;;;2.43;100.00
23643;BME280;11998;55.788;37.572;2022-11-23T00:19:31;98106.06;;;2.46;100.00
23643;BME280;11998;55.788;37.572;2022-11-23T00:20:32;98107.72;;;2.53;100.00
23643;BME280;11998;55.788;37.572;2022-11-23T00:21:32;98107.63;;;2.62;100.00
23643;BME280;11998;55.788;37.572;2022-11-23T00:22:34;98098.91;;;2.63;100.00
23643;BME280;11998;55.788;37.572;2022-11-23T00:23:35;98109.22;;;2.74;100.00
23643;BME280;11998;55.788;37.572;2022-11-23T00:24:36;98106.63;;;2.71;100.00
23643;BME280;11998;55.788;37.572;2022-11-23T00:25:36;98119.72;;;2.70;100.00
23643;BME280;11998;55.788;37.572;2022-11-23T00:26:37;98116.06;;;2.83;100.00
23643;BME280;11998;55.788;37.572;2022-11-23T00:27:37;98106.44;;;2.85;100.00
23643;BME280;11998;55.788;37.572;2022-11-23T00:28:38;98107.47;;;2.75;100.00
23643;BME280;11998;55.788;37.572;2022-11-23T00:29:39;98109.97;;;2.82;100.00
23643;BME280;11998;55.788;37.572;2022-11-23T00:30:40;98103.00;;;2.83;100.00
23643;BME280;11998;55.788;37.572;2022-11-23T00:31:40;98102.09;;;2.87;100.00
23643;BME280;11998;55.788;37.572;2022-11-23T00:32:41;98100.34;;;2.86;100.00
23643;BME280;11998;55.788;37.572;2022-11-23T00:33:42;98098.59;;;2.85;100.00
23643;BME280;11998;55.788;37.572;2022-11-23T00:34:47;98101.16;;;2.89;100.00
23643;BME280;11998;55.788;37.572;2022-11-23T00:35:47;98097.66;;;2.90;100.00
23643;BME280;11998;55.788;37.572;2022-11-23T00:36:57;98102.03;;;2.90;100.00
23643;BME280;11998;55.788;37.572;2022-11-23T00:37:58;98105.44;;;2.95;100.00
23643;BME280;11998;55.788;37.572;2022-11-23T00:38:58;98090.75;;;2.86;100.00
23643;BME280;11998;55.788;37.572;2022-11-23T00:39:58;98103.00;;;2.83;100.00
23643;BME280;11998;55.788;37.572;2022-11-23T00:41:01;98092.50;;;2.87;100.00
23643;BME280;11998;55.788;37.572;2022-11-23T00:42:02;98099.28;;;2.98;100.00
23643;BME280;11998;55.788;37.572;2022-11-23T00:43:02;98094.13;;;2.94;100.00
23643;BME280;11998;55.788;37.572;2022-11-23T00:44:03;98089.75;;;2.95;100.00
23643;BME280;11998;55.788;37.572;2022-11-23T00:45:04;98099.31;;;2.99;100.00
23643;BME280;11998;55.788;37.572;2022-11-23T00:46:25;98093.22;;;2.95;100.00
23643;BME280;11998;55.788;37.572;2022-11-23T00:47:26;98101.91;;;2.99;100.00
23643;BME280;11998;55.788;37.572;2022-11-23T00:48:26;98095.78;;;3.02;100.00
23643;BME280;11998;55.788;37.572;2022-11-23T00:49:27;98093.91;;;3.08;100.00
23643;BME280;11998;55.788;37.572;2022-11-23T00:50:27;98084.34;;;3.07;100.00
23643;BME280;11998;55.788;37.572;2022-11-23T00:51:30;98091.34;;;3.05;100.00
23643;BME280;11998;55.788;37.572;2022-11-23T00:52:31;98081.34;;;2.72;100.00
23643;BME280;11998;55.788;37.572;2022-11-23T00:53:32;98086.41;;;2.84;100.00
23643;BME280;11998;55.788;37.572;2022-11-23T00:54:33;98087.13;;;2.95;100.00
23643;BME280;11998;55.788;37.572;2022-11-23T00:55:33;98088.84;;;2.96;100.00
23643;BME280;11998;55.788;37.572;2022-11-23T00:56:34;98087.91;;;3.03;100.00
23643;BME280;11998;55.788;37.572;2022-11-23T00:57:35;98089.72;;;2.98;100.00
23643;BME280;11998;55.788;37.572;2022-11-23T00:58:36;98094.88;;;3.03;100.00
23643;BME280;11998;55.788;37.572;2022-11-23T00:59:39;98098.75;;;2.76;100.00
23643;BME280;11998;55.788;37.572;2022-11-23T01:00:40;98098.75;;;2.73;100.00
23643;BME280;11998;55.788;37.572;2022-11-23T01:01:40;98102.25;;;2.72;100.00
23643;BME280;11998;55.788;37.572;2022-11-23T01:02:41;98099.66;;;2.70;100.00
23643;BME280;11998;55.788;37.572;2022-11-23T01:03:49;98104.84;;;2.76;100.00
23643;BME280;11998;55.788;37.572;2022-11-23T01:04:50;98092.00;;;2.56;100.00
23643;BME280;11998;55.788;37.572;2022-11-23T01:05:50;98098.75;;;2.73;100.00
23643;BME280;11998;55.788;37.572;2022-11-23T01:06:54;98103.94;;;2.77;100.00
23643;BME280;11998;55.788;37.572;2022-11-23T01:07:56;98096.97;;;2.78;100.00
23643;BME280;11998;55.788;37.572;2022-11-23T01:08:59;98101.31;;;2.79;100.00
23643;BME280;11998;55.788;37.572;2022-11-23T01:10:00;98092.63;;;2.77;100.00
23643;BME280;11998;55.788;37.572;2022-11-23T01:11:02;98095.19;;;2.80;100.00
23643;BME280;11998;55.788;37.572;2022-11-23T01:12:03;98097.03;;;2.75;100.00
23643;BME280;11998;55.788;37.572;2022-11-23T01:13:04;98096.16;;;2.71;100.00
23643;BME280;11998;55.788;37.572;2022-11-23T01:14:04;98098.81;;;2.70;100.00
23643;BME280;11998;55.788;37.572;2022-11-23T01:15:05;98093.47;;;2.79;100.00
23643;BME280;11998;55.788;37.572;2022-11-23T01:16:09;98096.97;;;2.78;100.00
23643;BME280;11998;55.788;37.572;2022-11-23T01:17:12;98090.84;;;2.79;100.00
23643;BME280;11998;55.788;37.572;2022-11-23T01:18:12;98095.25;;;2.77;100.00
23643;BME280;11998;55.788;37.572;2022-11-23T01:19:16;98076.28;;;2.59;100.00
23643;BME280;11998;55.788;37.572;2022-11-23T01:20:17;98090.22;;;2.61;100.00
23643;BME280;11998;55.788;37.572;2022-11-23T01:21:17;98086.72;;;2.59;100.00
23643;BME280;11998;55.788;37.572;2022-11-23T01:22:18;98090.28;;;2.55;100.00
23643;BME280;11998;55.788;37.572;2022-11-23T01:23:19;98092.81;;;2.60;100.00
23643;BME280;11998;55.788;37.572;2022-11-23T01:24:21;98086.06;;;2.44;100.00
23643;BME280;11998;55.788;37.572;2022-11-23T01:25:22;98085.31;;;2.32;100.00
23643;BME280;11998;55.788;37.572;2022-11-23T01:26:22;98090.63;;;2.28;100.00
23643;BME280;11998;55.788;37.572;2022-11-23T01:27:23;98086.13;;;2.39;100.00
23643;BME280;11998;55.788;37.572;2022-11-23T01:28:23;98085.09;;;2.52;100.00
23643;BME280;11998;55.788;37.572;2022-11-23T01:29:24;98085.00;;;2.58;100.00
23643;BME280;11998;55.788;37.572;2022-11-23T01:30:25;98088.34;;;2.70;100.00
23643;BME280;11998;55.788;37.572;2022-11-23T01:31:25;98091.75;;;2.78;100.00
23643;BME280;11998;55.788;37.572;2022-11-23T01:32:26;98083.00;;;2.79;100.00
23643;BME280;11998;55.788;37.572;2022-11-23T01:33:26;98090.25;;;2.58;100.00
23643;BME280;11998;55.788;37.572;2022-11-23T01:34:27;98080.81;;;2.47;100.00
23643;BME280;11998;55.788;37.572;2022-11-23T01:35:28;98088.66;;;2.48;100.00
23643;BME280;11998;55.788;37.572;2022-11-23T01:36:31;98087.78;;;2.45;100.00
23643;BME280;11998;55.788;37.572;2022-11-23T01:37:32;98092.13;;;2.47;100.00
23643;BME280;11998;55.788;37.572;2022-11-23T01:38:32;98086.88;;;2.47;100.00
23643;BME280;11998;55.788;37.572;2022-11-23T01:39:33;98089.41;;;2.55;100.00
23643;BME280;11998;55.788;37.572;2022-11-23T01:40:41;98084.38;;;2.41;100.00
23643;BME280;11998;55.788;37.572;2022-11-23T01:41:44;98092.13;;;2.47;100.00
23643;BME280;11998;55.788;37.572;2022-11-23T01:43:48;98087.66;;;2.57;100.00
23643;BME280;11998;55.788;37.572;2022-11-23T01:44:50;98087.66;;;2.55;100.00
23643;BME280;11998;55.788;37.572;2022-11-23T01:46:53;98088.41;;;2.67;100.00
23643;BME280;11998;55.788;37.572;2022-11-23T01:47:54;98091.84;;;2.69;100.00
23643;BME280;11998;55.788;37.572;2022-11-23T01:48:56;98094.44;;;2.73;100.00
23643;BME280;11998;55.788;37.572;2022-11-23T01:50:01;98094.34;;;2.78;100.00
23643;BME280;11998;55.788;37.572;2022-11-23T01:51:04;98086.75;;;2.61;100.00
23643;BME280;11998;55.788;37.572;2022-11-23T01:52:15;98091.09;;;2.60;100.00
23643;BME280;11998;55.788;37.572;2022-11-23T01:53:18;98095.31;;;2.71;100.00
23643;BME280;11998;55.788;37.572;2022-11-23T01:54:37;98101.56;;;2.59;100.00
23643;BME280;11998;55.788;37.572;2022-11-23T01:55:39;98090.28;;;2.55;100.00
23643;BME280;11998;55.788;37.572;2022-11-23T01:56:43;98093.72;;;2.60;100.00
23643;BME280;11998;55.788;37.572;2022-11-23T01:57:44;98093.53;;;2.73;100.00
23643;BME280;11998;55.788;37.572;2022-11-23T01:58:49;98092.66;;;2.75;100.00
23643;BME280;11998;55.788;37.572;2022-11-23T01:59:52;98097.16;;;2.64;100.00
23643;BME280;11998;55.788;37.572;2022-11-23T02:00:53;98095.34;;;2.68;100.00
23643;BME280;11998;55.788;37.572;2022-11-23T02:01:53;98091.91;;;2.65;100.00
23643;BME280;11998;55.788;37.572;2022-11-23T02:02:56;98095.34;;;2.68;100.00
23643;BME280;11998;55.788;37.572;2022-11-23T02:03:59;98097.97;;;2.68;100.00
23643;BME280;11998;55.788;37.572;2022-11-23T02:05:01;98099.72;;;2.67;100.00
23643;BME280;11998;55.788;37.572;2022-11-23T02:06:07;98095.44;;;2.61;100.00
23643;BME280;11998;55.788;37.572;2022-11-23T02:07:09;98095.47;;;2.58;100.00
23643;BME280;11998;55.788;37.572;2022-11-23T02:08:10;98095.47;;;2.58;100.00
23643;BME280;11998;55.788;37.572;2022-11-23T02:09:14;98099.97;;;2.46;100.00
23643;BME280;11998;55.788;37.572;2022-11-23T02:10:16;98102.69;;;2.38;100.00
23643;BME280;11998;55.788;37.572;2022-11-23T02:11:17;98093.84;;;2.50;100.00
23643;BME280;11998;55.788;37.572;2022-11-23T02:12:17;98103.38;;;2.54;100.00
23643;BME280;11998;55.788;37.572;2022-11-23T02:13:18;98098.28;;;2.42;100.00
23643;BME280;11998;55.788;37.572;2022-11-23T02:14:18;98102.56;;;2.47;100.00
23643;BME280;11998;55.788;37.572;2022-11-23T02:15:19;98099.94;;;2.47;100.00
23643;BME280;11998;55.788;37.572;2022-11-23T02:16:19;98101.72;;;2.48;100.00
23643;BME280;11998;55.788;37.572;2022-11-23T02:17:20;98107.72;;;2.53;100.00
23643;BME280;11998;55.788;37.572;2022-11-23T02:18:24;98098.91;;;2.63;100.00
23643;BME280;11998;55.788;37.572;2022-11-23T02:19:40;98111.13;;;2.61;100.00
23643;BME280;11998;55.788;37.572;2022-11-23T02:20:44;98106.19;;;2.37;100.00
23643;BME280;11998;55.788;37.572;2022-11-23T02:21:45;98104.38;;;2.42;100.00
23643;BME280;11998;55.788;37.572;2022-11-23T02:22:58;98114.78;;;2.45;100.00
23643;BME280;11998;55.788;37.572;2022-11-23T02:24:34;98107.72;;;2.53;100.00
23643;BME280;11998;55.788;37.572;2022-11-23T02:26:46;98103.28;;;2.60;100.00
23643;BME280;11998;55.788;37.572;2022-11-23T02:27:48;98106.81;;;2.57;100.00
23643;BME280;11998;55.788;37.572;2022-11-23T02:28:53;98104.97;;;2.65;100.00
23643;BME280;11998;55.788;37.572;2022-11-23T02:29:57;98110.94;;;2.77;100.00
23643;BME280;11998;55.788;37.572;2022-11-23T02:31:00;98103.88;;;2.82;100.00
23643;BME280;11998;55.788;37.572;2022-11-23T02:32:01;98111.69;;;2.86;100.00
23643;BME280;11998;55.788;37.572;2022-11-23T02:33:03;98101.97;;;2.93;100.00
23643;BME280;11998;55.788;37.572;2022-11-23T02:34:05;98112.63;;;2.79;100.00
23643;BME280;11998;55.788;37.572;2022-11-23T02:35:05;98110.84;;;2.83;100.00
23643;BME280;11998;55.788;37.572;2022-11-23T02:36:38;98107.38;;;2.81;100.00
23643;BME280;11998;55.788;37.572;2022-11-23T02:37:40;98111.63;;;2.89;100.00
23643;BME280;11998;55.788;37.572;2022-11-23T02:38:41;98104.56;;;2.94;100.00
23643;BME280;11998;55.788;37.572;2022-11-23T02:39:45;98107.16;;;2.96;100.00
23643;BME280;11998;55.788;37.572;2022-11-23T02:40:47;98105.44;;;2.95;100.00
23643;BME280;11998;55.788;37.572;2022-11-23T02:41:50;98105.44;;;2.95;100.00
23643;BME280;11998;55.788;37.572;2022-11-23T02:42:51;98099.66;;;2.70;100.00
23643;BME280;11998;55.788;37.572;2022-11-23T02:43:53;98107.63;;;2.59;100.00
23643;BME280;11998;55.788;37.572;2022-11-23T02:45:17;98107.63;;;2.62;100.00
23643;BME280;11998;55.788;37.572;2022-11-23T02:46:21;98108.50;;;2.63;100.00
23643;BME280;11998;55.788;37.572;2022-11-23T02:47:21;98099.69;;;2.69;100.00
23643;BME280;11998;55.788;37.572;2022-11-23T02:48:22;98102.34;;;2.67;100.00
23643;BME280;11998;55.788;37.572;2022-11-23T02:49:23;98104.03;;;2.70;100.00
23643;BME280;11998;55.788;37.572;2022-11-23T02:50:24;98104.16;;;2.62;100.00
23643;BME280;11998;55.788;37.572;2022-11-23T02:51:25;98098.28;;;2.43;100.00
23643;BME280;11998;55.788;37.572;2022-11-23T02:52:25;98095.59;;;2.49;100.00
23643;BME280;11998;55.788;37.572;2022-11-23T02:53:26;98092.06;;;2.53;100.00
23643;BME280;11998;55.788;37.572;2022-11-23T02:54:26;98094.75;;;2.46;100.00
23643;BME280;11998;55.788;37.572;2022-11-23T02:55:27;98097.53;;;2.32;100.00
23643;BME280;11998;55.788;37.572;2022-11-23T02:56:28;98101.03;;;2.31;100.00
23643;BME280;11998;55.788;37.572;2022-11-23T02:57:28;98090.63;;;2.26;100.00
23643;BME280;11998;55.788;37.572;2022-11-23T02:58:28;98102.13;;;2.09;100.00
23643;BME280;11998;55.788;37.572;2022-11-23T02:59:29;98102.09;;;2.10;100.00
23643;BME280;11998;55.788;37.572;2022-11-23T03:00:32;98096.88;;;2.13;100.00
23643;BME280;11998;55.788;37.572;2022-11-23T03:01:32;98094.38;;;2.02;100.00
23643;BME280;11998;55.788;37.572;2022-11-23T03:02:33;98096.94;;;2.05;100.00
23643;BME280;11998;55.788;37.572;2022-11-23T03:03:33;98091.78;;;2.01;100.00
23643;BME280;11998;55.788;37.572;2022-11-23T03:04:34;98091.72;;;2.07;100.00
23643;BME280;11998;55.788;37.572;2022-11-23T03:05:34;98103.88;;;2.11;100.00
23643;BME280;11998;55.788;37.572;2022-11-23T03:06:35;98101.38;;;1.99;100.00
23643;BME280;11998;55.788;37.572;2022-11-23T03:07:36;98097.22;;;1.78;100.00
23643;BME280;11998;55.788;37.572;2022-11-23T03:08:37;98096.28;;;1.85;100.00
23643;BME280;11998;55.788;37.572;2022-11-23T03:09:37;98103.19;;;1.92;100.00
23643;BME280;11998;55.788;37.572;2022-11-23T03:10:38;98111.97;;;1.82;100.00
23643;BME280;11998;55.788;37.572;2022-11-23T03:11:38;98104.97;;;1.84;100.00
23643;BME280;11998;55.788;37.572;2022-11-23T03:12:39;98099.81;;;1.81;100.00
23643;BME280;11998;55.788;37.572;2022-11-23T03:13:39;98102.41;;;1.83;100.00
23643;BME280;11998;55.788;37.572;2022-11-23T03:14:40;98106.72;;;1.85;100.00
23643;BME280;11998;55.788;37.572;2022-11-23T03:15:41;98110.16;;;1.90;100.00
23643;BME280;11998;55.788;37.572;2022-11-23T03:16:41;98113.69;;;1.86;100.00
23643;BME280;11998;55.788;37.572;2022-11-23T03:17:42;98117.16;;;1.84;100.00
23643;BME280;11998;55.788;37.572;2022-11-23T03:18:42;98113.69;;;1.86;100.00
23643;BME280;11998;55.788;37.572;2022-11-23T03:19:42;98118.75;;;1.98;100.00
23643;BME280;11998;55.788;37.572;2022-11-23T03:20:43;98116.91;;;2.10;100.00
23643;BME280;11998;55.788;37.572;2022-11-23T03:21:43;98117.91;;;2.01;100.00
23643;BME280;11998;55.788;37.572;2022-11-23T03:22:44;98115.31;;;1.99;100.00
23643;BME280;11998;55.788;37.572;2022-11-23T03:23:45;98120.41;;;2.09;100.00
23643;BME280;11998;55.788;37.572;2022-11-23T03:24:46;98116.16;;;2.00;100.00
23643;BME280;11998;55.788;37.572;2022-11-23T03:25:54;98115.22;;;2.05;100.00
23643;BME280;11998;55.788;37.572;2022-11-23T03:26:55;98115.25;;;2.02;100.00
23643;BME280;11998;55.788;37.572;2022-11-23T03:27:55;98113.53;;;2.01;100.00
23643;BME280;11998;55.788;37.572;2022-11-23T03:28:56;98122.28;;;1.94;100.00
23643;BME280;11998;55.788;37.572;2022-11-23T03:29:56;98117.94;;;1.95;100.00
23643;BME280;11998;55.788;37.572;2022-11-23T03:30:57;98116.16;;;2.01;100.00
23643;BME280;11998;55.788;37.572;2022-11-23T03:31:57;98123.16;;;1.96;100.00
23643;BME280;11998;55.788;37.572;2022-11-23T03:32:58;98120.44;;;2.05;100.00
23643;BME280;11998;55.788;37.572;2022-11-23T03:33:58;98122.13;;;2.10;100.00
23643;BME280;11998;55.788;37.572;2022-11-23T03:34:59;98115.19;;;2.12;100.00
23643;BME280;11998;55.788;37.572;2022-11-23T03:35:59;98115.19;;;2.12;100.00
23643;BME280;11998;55.788;37.572;2022-11-23T03:37:00;98122.97;;;2.15;100.00
23643;BME280;11998;55.788;37.572;2022-11-23T03:38:00;98123.81;;;2.17;100.00
23643;BME280;11998;55.788;37.572;2022-11-23T03:39:01;98123.94;;;2.04;100.00
23643;BME280;11998;55.788;37.572;2022-11-23T03:40:02;98137.88;;;2.03;100.00
23643;BME280;11998;55.788;37.572;2022-11-23T03:41:02;98132.59;;;2.10;100.00
23643;BME280;11998;55.788;37.572;2022-11-23T03:42:03;98128.97;;;2.23;100.00
23643;BME280;11998;55.788;37.572;2022-11-23T03:43:04;98129.78;;;2.29;100.00
23643;BME280;11998;55.788;37.572;2022-11-23T03:44:04;98128.88;;;2.32;100.00
23643;BME280;11998;55.788;37.572;2022-11-23T03:45:07;98121.88;;;2.34;100.00
23643;BME280;11998;55.788;37.572;2022-11-23T03:46:08;98117.59;;;2.30;100.00
23643;BME280;11998;55.788;37.572;2022-11-23T03:47:09;98119.47;;;2.17;100.00
23643;BME280;11998;55.788;37.572;2022-11-23T03:48:10;98115.41;;;1.87;100.00
23643;BME280;11998;55.788;37.572;2022-11-23T03:49:10;98115.44;;;1.84;100.00
23643;BME280;11998;55.788;37.572;2022-11-23T03:50:11;98106.78;;;1.79;100.00
23643;BME280;11998;55.788;37.572;2022-11-23T03:51:12;98111.09;;;1.82;100.00
23643;BME280;11998;55.788;37.572;2022-11-23T03:52:12;98119.03;;;1.71;100.00
23643;BME280;11998;55.788;37.572;2022-11-23T03:53:13;98117.19;;;1.82;100.00
23643;BME280;11998;55.788;37.572;2022-11-23T03:54:13;98110.25;;;1.80;100.00
23643;BME280;11998;55.788;37.572;2022-11-23T03:55:14;98118.00;;;1.89;100.00
23643;BME280;11998;55.788;37.572;2022-11-23T03:56:15;98116.31;;;1.82;100.00
23643;BME280;11998;55.788;37.572;2022-11-23T03:57:15;98118.91;;;1.83;100.00
23643;BME280;11998;55.788;37.572;2022-11-23T03:58:16;98118.91;;;1.86;100.00
23643;BME280;11998;55.788;37.572;2022-11-23T03:59:16;98118.06;;;1.83;100.00
23643;BME280;11998;55.788;37.572;2022-11-23T04:00:17;98115.44;;;1.84;100.00
23643;BME280;11998;55.788;37.572;2022-11-23T04:01:17;98116.28;;;1.88;100.00
23643;BME280;11998;55.788;37.572;2022-11-23T04:02:18;98117.13;;;1.91;100.00
23643;BME280;11998;55.788;37.572;2022-11-23T04:03:18;98110.94;;;2.00;100.00
23643;BME280;11998;55.788;37.572;2022-11-23T04:04:19;98117.00;;;2.03;100.00
23643;BME280;11998;55.788;37.572;2022-11-23T04:05:20;98123.09;;;2.02;100.00
23643;BME280;11998;55.788;37.572;2022-11-23T04:06:21;98126.63;;;1.95;100.00
23643;BME280;11998;55.788;37.572;2022-11-23T04:07:21;98120.41;;;2.09;100.00
23643;BME280;11998;55.788;37.572;2022-11-23T04:08:22;98118.69;;;2.08;100.00
23643;BME280;11998;55.788;37.572;2022-11-23T04:09:22;98116.94;;;2.06;100.00
23643;BME280;11998;55.788;37.572;2022-11-23T04:10:23;98114.38;;;2.03;100.00
23643;BME280;11998;55.788;37.572;2022-11-23T04:11:23;98121.31;;;2.06;100.00
23643;BME280;11998;55.788;37.572;2022-11-23T04:12:24;98123.25;;;1.87;100.00
23643;BME280;11998;55.788;37.572;2022-11-23T04:13:25;98114.59;;;1.81;100.00
23643;BME280;11998;55.788;37.572;2022-11-23T04:14:25;98127.66;;;1.79;100.00
23643;BME280;11998;55.788;37.572;2022-11-23T04:15:26;98125.16;;;1.67;100.00
23643;BME280;11998;55.788;37.572;2022-11-23T04:16:26;98128.59;;;1.72;100.00
23643;BME280;11998;55.788;37.572;2022-11-23T04:17:27;98132.91;;;1.76;100.00
23643;BME280;11998;55.788;37.572;2022-11-23T04:18:27;98130.28;;;1.77;100.00
23643;BME280;11998;55.788;37.572;2022-11-23T04:19:28;98126.78;;;1.80;100.00
23643;BME280;11998;55.788;37.572;2022-11-23T04:20:29;98122.41;;;1.82;100.00
23643;BME280;11998;55.788;37.572;2022-11-23T04:21:30;98124.28;;;1.68;100.00
23643;BME280;11998;55.788;37.572;2022-11-23T04:22:30;98126.84;;;1.75;100.00
23643;BME280;11998;55.788;37.572;2022-11-23T04:23:31;98125.09;;;1.76;100.00
23643;BME280;11998;55.788;37.572;2022-11-23T04:24:31;98122.41;;;1.82;100.00
23643;BME280;11998;55.788;37.572;2022-11-23T04:25:32;98119.88;;;1.74;100.00
23643;BME280;11998;55.788;37.572;2022-11-23T04:26:32;98125.03;;;1.81;100.00
23643;BME280;11998;55.788;37.572;2022-11-23T04:27:33;98125.03;;;1.82;100.00
23643;BME280;11998;55.788;37.572;2022-11-23T04:28:33;98134.69;;;1.74;100.00
23643;BME280;11998;55.788;37.572;2022-11-23T04:29:34;98134.66;;;1.77;100.00
23643;BME280;11998;55.788;37.572;2022-11-23T04:30:34;98128.59;;;1.70;100.00
23643;BME280;11998;55.788;37.572;2022-11-23T04:31:35;98133.84;;;1.67;100.00
23643;BME280;11998;55.788;37.572;2022-11-23T04:32:35;98132.09;;;1.68;100.00
23643;BME280;11998;55.788;37.572;2022-11-23T04:33:36;98130.28;;;1.79;100.00
23643;BME280;11998;55.788;37.572;2022-11-23T04:34:36;98134.69;;;1.74;100.00
23643;BME280;11998;55.788;37.572;2022-11-23T04:35:37;98132.84;;;1.84;100.00
23643;BME280;11998;55.788;37.572;2022-11-23T04:36:37;98135.44;;;1.87;100.00
23643;BME280;11998;55.788;37.572;2022-11-23T04:37:38;98134.59;;;1.83;100.00
23643;BME280;11998;55.788;37.572;2022-11-23T04:38:38;98134.47;;;1.95;100.00
23643;BME280;11998;55.788;37.572;2022-11-23T04:39:39;98132.69;;;2.00;100.00
23643;BME280;11998;55.788;37.572;2022-11-23T04:40:39;98134.53;;;1.91;100.00
23643;BME280;11998;55.788;37.572;2022-11-23T04:41:40;98129.22;;;2.01;100.00
23643;BME280;11998;55.788;37.572;2022-11-23T04:42:40;98137.97;;;1.94;100.00
23643;BME280;11998;55.788;37.572;2022-11-23T04:43:41;98131.88;;;1.94;100.00
23643;BME280;11998;55.788;37.572;2022-11-23T04:44:41;98135.34;;;1.96;100.00
23643;BME280;11998;55.788;37.572;2022-11-23T04:45:43;98131.84;;;1.97;100.00
23643;BME280;11998;55.788;37.572;2022-11-23T04:46:44;98132.69;;;1.97;100.00
23643;BME280;11998;55.788;37.572;2022-11-23T04:47:44;98132.66;;;2.03;100.00
23643;BME280;11998;55.788;37.572;2022-11-23T04:48:45;98127.34;;;2.10;100.00
23643;BME280;11998;55.788;37.572;2022-11-23T04:49:45;98119.63;;;2.02;100.00
23643;BME280;11998;55.788;37.572;2022-11-23T04:50:46;98134.44;;;2.01;100.00
23643;BME280;11998;55.788;37.572;2022-11-23T04:51:46;98130.84;;;2.10;100.00
23643;BME280;11998;55.788;37.572;2022-11-23T04:52:47;98127.28;;;2.19;100.00
23643;BME280;11998;55.788;37.572;2022-11-23T04:53:47;98128.13;;;2.19;100.00
23643;BME280;11998;55.788;37.572;2022-11-23T04:54:48;98132.41;;;2.28;100.00
23643;BME280;11998;55.788;37.572;2022-11-23T04:55:48;98132.41;;;2.28;100.00
23643;BME280;11998;55.788;37.572;2022-11-23T04:56:49;98128.06;;;2.28;100.00
23643;BME280;11998;55.788;37.572;2022-11-23T04:57:49;98130.59;;;2.34;100.00
23643;BME280;11998;55.788;37.572;2022-11-23T04:58:50;98136.63;;;2.41;100.00
23643;BME280;11998;55.788;37.572;2022-11-23T04:59:50;98134.88;;;2.42;100.00
23643;BME280;11998;55.788;37.572;2022-11-23T05:00:51;98130.50;;;2.42;100.00
23643;BME280;11998;55.788;37.572;2022-11-23T05:01:51;98130.59;;;2.33;100.00
23643;BME280;11998;55.788;37.572;2022-11-23T05:02:52;98133.31;;;2.22;100.00
23643;BME280;11998;55.788;37.572;2022-11-23T05:03:52;98135.13;;;2.19;100.00
23643;BME280;11998;55.788;37.572;2022-11-23T05:04:53;98135.09;;;2.20;100.00
23643;BME280;11998;55.788;37.572;2022-11-23T05:05:57;98135.06;;;2.25;100.00
23643;BME280;11998;55.788;37.572;2022-11-23T05:06:58;98134.31;;;2.11;100.00
23643;BME280;11998;55.788;37.572;2022-11-23T05:07:58;98133.41;;;2.16;100.00
23643;BME280;11998;55.788;37.572;2022-11-23T05:08:59;98133.50;;;2.05;100.00
23643;BME280;11998;55.788;37.572;2022-11-23T05:09:59;98136.13;;;2.05;100.00
23643;BME280;11998;55.788;37.572;2022-11-23T05:11:00;98132.78;;;1.91;100.00
23643;BME280;11998;55.788;37.572;2022-11-23T05:12:00;98139.78;;;1.85;100.00
23643;BME280;11998;55.788;37.572;2022-11-23T05:13:02;98142.53;;;1.69;100.00
23643;BME280;11998;55.788;37.572;2022-11-23T05:14:02;98139.91;;;1.74;100.00
23643;BME280;11998;55.788;37.572;2022-11-23T05:15:04;98142.50;;;1.74;100.00
23643;BME280;11998;55.788;37.572;2022-11-23T05:16:04;98151.22;;;1.70;100.00
23643;BME280;11998;55.788;37.572;2022-11-23T05:17:05;98146.94;;;1.60;100.00
23643;BME280;11998;55.788;37.572;2022-11-23T05:18:06;98143.34;;;1.73;100.00
23643;BME280;11998;55.788;37.572;2022-11-23T05:19:07;98138.13;;;1.73;100.00
23643;BME280;11998;55.788;37.572;2022-11-23T05:20:08;98149.53;;;1.66;100.00
23643;BME280;11998;55.788;37.572;2022-11-23T05:21:09;98148.66;;;1.65;100.00
23643;BME280;11998;55.788;37.572;2022-11-23T05:22:10;98147.81;;;1.65;100.00
23643;BME280;11998;55.788;37.572;2022-11-23T05:23:10;98149.56;;;1.60;100.00
23643;BME280;11998;55.788;37.572;2022-11-23T05:24:11;98147.00;;;1.54;100.00
23643;BME280;11998;55.788;37.572;2022-11-23T05:25:11;98143.47;;;1.61;100.00
23643;BME280;11998;55.788;37.572;2022-11-23T05:26:12;98150.44;;;1.59;100.00